Time;durP1;ratioP1;P1;durP2;ratioP2;P2;SDS_P1;SDS_P2;PMS_P1;PMS_P2;Temp;Humidity;BMP_temperature;BMP_pressure;BME280_temperature;BME280_humidity;BME280_pressure;Samples;Min_cycle;Max_cycle;Signal;HPM_P1;HPM_P2
2022/08/24 00:00:58;;;;;;;25.6;32.7;;;;;;;19.7;100;98700;;;;
2022/08/24 00:11:58;;;;;;;25.6;32.7;;;;;;;19.7;100;98680;;;;
2022/08/24 00:21:59;;;;;;;25.9;37.3;;;;;;;19.8;100;98690;;;;
2022/08/24 00:32:58;;;;;;;25.9;37.3;;;;;;;19.5;100;98680;;;;
2022/08/24 00:43:58;;;;;;;25.9;37.3;;;;;;;19.6;100;98700;;;;
2022/08/24 00:53:58;;;;;;;28.7;35.3;;;;;;;19.6;100;98700;;;;
2022/08/24 01:03:58;;;;;;;28.7;35.3;;;;;;;19.6;100;98700;;;;
2022/08/24 01:14:58;;;;;;;28.7;35.3;;;;;;;19.7;100;98720;;;;
2022/08/24 01:24:58;;;;;;;29.8;42.2;;;;;;;19.6;100;98720;;;;
2022/08/24 01:34:58;;;;;;;29.8;42.2;;;;;;;19.6;100;98720;;;;
2022/08/24 01:45:58;;;;;;;29.8;42.2;;;;;;;19.5;100;98730;;;;
2022/08/24 01:56:58;;;;;;;30.8;41.3;;;;;;;19.6;100;98740;;;;
2022/08/24 02:07:58;;;;;;;30.8;41.3;;;;;;;19.5;100;98750;;;;
2022/08/24 02:17:58;;;;;;;30.8;41.3;;;;;;;19.6;100;98760;;;;
2022/08/24 02:27:58;;;;;;;32.7;41.4;;;;;;;19.6;100;98760;;;;
2022/08/24 02:38:58;;;;;;;32.7;41.4;;;;;;;19.5;100;98750;;;;
2022/08/24 02:48:58;;;;;;;30.8;43.8;;;;;;;19.7;100;98760;;;;
2022/08/24 02:58:58;;;;;;;30.8;43.8;;;;;;;19.6;100;98760;;;;
2022/08/24 03:09:58;;;;;;;30.8;43.8;;;;;;;19.6;100;98770;;;;
2022/08/24 03:19:59;;;;;;;33.8;47.6;;;;;;;19.5;100;98770;;;;
2022/08/24 03:29:58;;;;;;;33.8;47.6;;;;;;;19.3;100;98770;;;;
2022/08/24 03:40:58;;;;;;;33.8;47.6;;;;;;;19.4;100;98770;;;;
2022/08/24 03:51:58;;;;;;;37.3;53.8;;;;;;;19.4;100;98780;;;;
2022/08/24 04:01:58;;;;;;;37.3;53.8;;;;;;;19.3;100;98770;;;;
2022/08/24 04:11:58;;;;;;;37.3;53.8;;;;;;;19.2;100;98770;;;;
2022/08/24 04:22:58;;;;;;;38.5;59.4;;;;;;;19.1;100;98770;;;;
2022/08/24 04:33:58;;;;;;;38.5;59.4;;;;;;;19.4;100;98770;;;;
2022/08/24 04:43:58;;;;;;;38.5;59.4;;;;;;;19.5;100;98770;;;;
2022/08/24 04:53:58;;;;;;;38.4;58.8;;;;;;;19.4;100;98770;;;;
2022/08/24 05:04:58;;;;;;;38.4;58.8;;;;;;;19.4;100;98770;;;;
2022/08/24 05:15:58;;;;;;;38.4;58.8;;;;;;;19.5;100;98760;;;;
2022/08/24 05:25:58;;;;;;;35.9;55.6;;;;;;;19.7;100;98770;;;;
2022/08/24 05:36:58;;;;;;;35.9;55.6;;;;;;;19.8;100;98770;;;;
2022/08/24 05:47:58;;;;;;;35.9;55.6;;;;;;;20;100;98790;;;;
2022/08/24 05:57:58;;;;;;;33.1;44.6;;;;;;;20.4;100;98800;;;;
2022/08/24 06:07:59;;;;;;;33.1;44.6;;;;;;;20.4;100;98810;;;;
2022/08/24 06:18:58;;;;;;;30.4;48.1;;;;;;;20.9;100;98800;;;;
2022/08/24 06:28:59;;;;;;;30.4;48.1;;;;;;;21.2;100;98810;;;;
2022/08/24 06:39:58;;;;;;;30.4;48.1;;;;;;;21.4;100;98820;;;;
2022/08/24 06:49:58;;;;;;;31.7;49;;;;;;;21.5;100;98820;;;;
2022/08/24 07:00:58;;;;;;;31.7;49;;;;;;;21.6;100;98840;;;;
2022/08/24 07:10:58;;;;;;;31.7;49;;;;;;;21.9;100;98840;;;;
2022/08/24 07:21:58;;;;;;;28.9;43;;;;;;;21.8;100;98850;;;;
2022/08/24 07:32:58;;;;;;;28.9;43;;;;;;;22.1;100;98850;;;;
2022/08/24 07:42:58;;;;;;;28.9;43;;;;;;;22.1;100;98850;;;;
2022/08/24 07:55:57;;;;;;;26.2;40.2;;;;;;;22;100;98860;;;;
2022/08/24 08:05:57;;;;;;;26.2;40.2;;;;;;;22.8;100;98860;;;;
2022/08/24 08:15:58;;;;;;;26.2;40.2;;;;;;;23.1;100;98860;;;;
2022/08/24 08:26:57;;;;;;;19.1;28.2;;;;;;;23.6;100;98880;;;;
2022/08/24 08:37:57;;;;;;;19.1;28.2;;;;;;;23.9;100;98880;;;;
2022/08/24 08:48:57;;;;;;;19.1;28.2;;;;;;;24.6;100;98880;;;;
2022/08/24 08:59:00;;;;;;;13.4;19.8;;;;;;;25.1;100;98880;;;;
2022/08/24 09:08:57;;;;;;;13.4;19.8;;;;;;;25.2;100;98890;;;;
2022/08/24 09:19:57;;;;;;;13.6;21.1;;;;;;;24.5;100;98880;;;;
2022/08/24 09:30:57;;;;;;;13.6;21.1;;;;;;;25;100;98880;;;;
2022/08/24 09:40:57;;;;;;;13.6;21.1;;;;;;;25.5;100;98870;;;;
2022/08/24 09:50:57;;;;;;;13.7;23.3;;;;;;;25.4;100;98860;;;;
2022/08/24 10:01:57;;;;;;;13.7;23.3;;;;;;;26.1;100;98850;;;;
2022/08/24 10:11:57;;;;;;;13.7;23.3;;;;;;;25.9;100;98860;;;;
2022/08/24 10:22:57;;;;;;;13.7;23.8;;;;;;;26.5;100;98870;;;;
2022/08/24 10:33:57;;;;;;;13.7;23.8;;;;;;;26.6;100;98870;;;;
2022/08/24 10:44:57;;;;;;;13.7;23.8;;;;;;;26.7;100;98870;;;;
2022/08/24 10:55:57;;;;;;;13.1;23.5;;;;;;;27.1;100;98870;;;;
2022/08/24 11:05:57;;;;;;;13.1;23.5;;;;;;;27;100;98860;;;;
2022/08/24 11:16:57;;;;;;;13.1;23.5;;;;;;;27.1;100;98850;;;;
2022/08/24 11:26:57;;;;;;;13.2;24.3;;;;;;;27.8;100;98840;;;;
2022/08/24 11:37:58;;;;;;;13.2;24.3;;;;;;;27.6;100;98840;;;;
2022/08/24 11:47:58;;;;;;;13.2;24.3;;;;;;;27.2;100;98840;;;;
2022/08/24 11:58:57;;;;;;;12.6;26.1;;;;;;;27.4;100;98850;;;;
2022/08/24 12:09:57;;;;;;;12.6;26.1;;;;;;;28;100;98840;;;;
2022/08/24 12:19:57;;;;;;;11.7;25.3;;;;;;;27.8;100;98840;;;;
2022/08/24 12:30:57;;;;;;;11.7;25.3;;;;;;;27.9;100;98850;;;;
2022/08/24 12:41:57;;;;;;;11.7;25.3;;;;;;;28.1;100;98850;;;;
2022/08/24 12:51:57;;;;;;;13;22.9;;;;;;;28.4;100;98850;;;;
2022/08/24 13:02:57;;;;;;;13;22.9;;;;;;;27.8;100;98840;;;;
2022/08/24 13:13:58;;;;;;;13;22.9;;;;;;;27.4;100;98830;;;;
2022/08/24 13:24:57;;;;;;;11.8;21.9;;;;;;;28;100;98810;;;;
2022/08/24 13:35:57;;;;;;;11.8;21.9;;;;;;;27.8;100;98810;;;;
2022/08/24 13:45:57;;;;;;;11.8;21.9;;;;;;;27.3;100;98790;;;;
2022/08/24 13:55:57;;;;;;;11.8;21.9;;;;;;;27.5;100;98780;;;;
2022/08/24 14:06:57;;;;;;;11.8;21.9;;;;;;;27.9;100;98770;;;;
2022/08/24 14:18:01;;;;;;;11.8;21.9;;;;;;;27.9;100;98760;;;;
2022/08/24 14:27:57;;;;;;;13.2;28.5;;;;;;;27.8;100;98750;;;;
2022/08/24 14:38:57;;;;;;;13.2;28.5;;;;;;;28;100;98750;;;;
2022/08/24 14:49:57;;;;;;;14.6;29.2;;;;;;;29.8;100;98760;;;;
2022/08/24 14:59:57;;;;;;;14.6;29.2;;;;;;;29;100;98780;;;;
2022/08/24 15:10:57;;;;;;;14.6;29.2;;;;;;;27.9;100;98780;;;;
2022/08/24 15:20:57;;;;;;;12.9;23;;;;;;;27.8;100;98780;;;;
2022/08/24 15:30:57;;;;;;;12.9;23;;;;;;;29.9;100;98770;;;;
2022/08/24 15:40:58;;;;;;;12.9;23;;;;;;;31.6;100;98790;;;;
2022/08/24 15:50:59;;;;;;;13.1;22.5;;;;;;;30.5;100;98800;;;;
2022/08/24 16:02:29;;;;;;;13.1;22.5;;;;;;;31.5;100;98790;;;;
2022/08/24 16:11:57;;;;;;;13.1;22.5;;;;;;;31.4;100;98780;;;;
2022/08/24 16:21:57;;;;;;;12.2;24;;;;;;;30.6;100;98770;;;;
2022/08/24 16:32:57;;;;;;;12.2;24;;;;;;;29;100;98770;;;;
2022/08/24 16:43:57;;;;;;;12.2;24;;;;;;;28;100;98780;;;;
2022/08/24 16:53:57;;;;;;;9.6;20.4;;;;;;;26.4;100;98810;;;;
2022/08/24 17:03:57;;;;;;;9.6;20.4;;;;;;;24.4;100;98810;;;;
2022/08/24 17:14:57;;;;;;;9.6;20.4;;;;;;;23.9;100;98820;;;;
2022/08/24 17:25:57;;;;;;;5.1;16.5;;;;;;;23.3;100;98830;;;;
2022/08/24 17:36:57;;;;;;;5.1;16.5;;;;;;;23.2;100;98830;;;;
2022/08/24 17:47:57;;;;;;;5.1;16.5;;;;;;;22.5;100;98820;;;;
2022/08/24 17:57:57;;;;;;;5.1;13;;;;;;;22.6;100;98820;;;;
2022/08/24 18:08:57;;;;;;;5.1;13;;;;;;;22.3;100;98810;;;;
2022/08/24 18:19:57;;;;;;;5.1;13;;;;;;;22.1;100;98850;;;;
2022/08/24 18:29:57;;;;;;;5.7;15.4;;;;;;;22.1;100;98860;;;;
2022/08/24 18:40:57;;;;;;;5.7;15.4;;;;;;;21.7;100;98860;;;;
2022/08/24 18:51:57;;;;;;;5.3;15.1;;;;;;;21.4;100;98850;;;;
2022/08/24 19:02:57;;;;;;;5.3;15.1;;;;;;;21.4;100;98840;;;;
2022/08/24 19:12:57;;;;;;;5.3;15.1;;;;;;;21;100;98830;;;;
2022/08/24 19:23:57;;;;;;;7.3;14.9;;;;;;;20.9;100;98830;;;;
2022/08/24 19:33:58;;;;;;;7.3;14.9;;;;;;;20.9;100;98840;;;;
2022/08/24 19:53:57;;;;;;;6.3;12.4;;;;;;;20.4;100;98880;;;;
2022/08/24 20:04:58;;;;;;;6.3;12.4;;;;;;;20.5;100;98870;;;;
2022/08/24 20:15:57;;;;;;;6.3;12.4;;;;;;;20.4;100;98870;;;;
2022/08/24 20:25:57;;;;;;;6.3;17.8;;;;;;;20.5;100;98880;;;;
2022/08/24 20:36:58;;;;;;;6.3;17.8;;;;;;;20.4;100;98890;;;;
2022/08/24 20:47:57;;;;;;;6.3;17.8;;;;;;;20.5;100;98900;;;;
2022/08/24 20:58:57;;;;;;;5.7;11.5;;;;;;;20.2;100;98900;;;;
2022/08/24 21:08:57;;;;;;;5.7;11.5;;;;;;;19.9;100;98900;;;;
2022/08/24 21:19:57;;;;;;;5.7;11.5;;;;;;;19.9;100;98920;;;;
2022/08/24 21:29:57;;;;;;;4.9;10;;;;;;;19.8;100;98920;;;;
2022/08/24 21:39:57;;;;;;;4.9;10;;;;;;;19.8;100;98910;;;;
2022/08/24 21:50:57;;;;;;;4.6;10.3;;;;;;;19.6;100;98910;;;;
2022/08/24 22:01:57;;;;;;;4.6;10.3;;;;;;;19.5;100;98890;;;;
2022/08/24 22:12:57;;;;;;;4.6;10.3;;;;;;;19.4;100;98890;;;;
2022/08/24 22:23:57;;;;;;;5;13.3;;;;;;;19.2;100;98880;;;;
2022/08/24 22:33:57;;;;;;;5;13.3;;;;;;;19.1;100;98870;;;;
2022/08/24 22:44:58;;;;;;;5;13.3;;;;;;;19;100;98860;;;;
2022/08/24 22:55:59;;;;;;;5.2;11.6;;;;;;;18.9;100;98860;;;;
2022/08/24 23:05:57;;;;;;;5.2;11.6;;;;;;;18.8;100;98850;;;;
2022/08/24 23:16:57;;;;;;;5.2;11.6;;;;;;;18.6;100;98840;;;;
2022/08/24 23:27:57;;;;;;;5;12.1;;;;;;;18.7;100;98830;;;;
2022/08/24 23:37:57;;;;;;;5;12.1;;;;;;;18.5;100;98830;;;;
2022/08/24 23:48:57;;;;;;;5;12.1;;;;;;;18.4;100;98830;;;;
2022/08/24 23:58:57;;;;;;;4.9;14;;;;;;;18.3;100;98830;;;;
